createdAt,value
2023-04-13T00:00:28.073Z,8.00
2023-04-13T00:02:56.334Z,17.00
2023-04-13T00:05:24.801Z,12.00
2023-04-13T00:07:53.297Z,13.80
2023-04-13T00:10:21.399Z,15.40
2023-04-13T00:12:49.473Z,15.80
2023-04-13T00:15:17.641Z,12.00
2023-04-13T00:17:47.482Z,16.75
2023-04-13T00:20:15.772Z,11.00
2023-04-13T00:22:44.221Z,10.60
2023-04-13T00:25:14.463Z,13.00
2023-04-13T00:27:43.473Z,14.00
2023-04-13T00:30:13.163Z,11.50
2023-04-13T00:32:42.393Z,15.25
2023-04-13T00:35:12.965Z,13.00
2023-04-13T00:37:43.233Z,15.00
2023-04-13T00:40:13.381Z,13.00
2023-04-13T00:42:41.436Z,14.60
2023-04-13T00:45:10.265Z,16.00
2023-04-13T00:47:38.383Z,13.00
2023-04-13T00:50:08.031Z,15.00
2023-04-13T00:52:38.421Z,17.00
2023-04-13T00:55:07.483Z,15.50
2023-04-13T00:57:35.725Z,16.50
2023-04-13T01:00:06.653Z,15.00
2023-04-13T01:02:34.798Z,17.00
2023-04-13T01:05:03.604Z,17.00
2023-04-13T01:07:37.264Z,20.00
2023-04-13T01:10:10.456Z,16.60
2023-04-13T01:12:40.890Z,17.00
2023-04-13T01:15:11.363Z,15.00
2023-04-13T01:17:40.398Z,20.40
2023-04-13T01:20:12.287Z,21.40
2023-04-13T01:22:42.774Z,18.20
2023-04-13T01:25:22.487Z,16.00
2023-04-13T01:27:53.997Z,14.00
2023-04-13T01:30:24.247Z,15.25
2023-04-13T01:32:56.049Z,15.60
2023-04-13T01:35:25.657Z,25.33
2023-04-13T01:37:54.905Z,15.00
2023-04-13T01:40:26.995Z,17.60
2023-04-13T01:42:58.540Z,17.80
2023-04-13T01:45:35.604Z,16.50
2023-04-13T01:48:08.038Z,23.25
2023-04-13T01:50:59.109Z,19.20
2023-04-13T01:53:46.182Z,17.80
2023-04-13T01:56:19.255Z,22.00
2023-04-13T01:58:51.923Z,21.00
2023-04-13T02:01:21.078Z,22.20
2023-04-13T02:03:49.306Z,17.40
2023-04-13T02:06:17.348Z,19.00
2023-04-13T02:08:46.178Z,21.40
2023-04-13T02:11:18.357Z,16.40
2023-04-13T02:13:46.401Z,16.40
2023-04-13T02:16:19.949Z,28.75
2023-04-13T02:18:49.283Z,22.20
2023-04-13T02:21:18.045Z,14.75
2023-04-13T02:23:46.161Z,14.50
2023-04-13T02:26:16.382Z,19.00
2023-04-13T02:28:44.509Z,20.20
2023-04-13T02:31:17.297Z,19.50
2023-04-13T02:33:48.609Z,16.40
2023-04-13T02:36:17.536Z,23.00
2023-04-13T02:38:54.677Z,16.00
2023-04-13T02:41:34.241Z,15.00
2023-04-13T02:44:03.173Z,15.50
2023-04-13T02:46:41.233Z,13.80
2023-04-13T02:49:15.314Z,15.00
2023-04-13T02:52:06.418Z,15.80
2023-04-13T02:54:47.579Z,19.50
2023-04-13T02:57:16.133Z,13.80
2023-04-13T02:59:45.140Z,14.50
2023-04-13T03:02:14.707Z,14.80
2023-04-13T03:04:44.595Z,12.67
2023-04-13T03:07:14.633Z,11.40
2023-04-13T03:09:47.320Z,15.00
2023-04-13T03:12:17.152Z,17.00
2023-04-13T03:14:47.768Z,21.75
2023-04-13T03:17:18.521Z,18.00
2023-04-13T03:19:50.867Z,12.60
2023-04-13T03:22:21.534Z,13.00
2023-04-13T03:24:50.906Z,14.40
2023-04-13T03:27:26.337Z,12.00
2023-04-13T03:29:56.075Z,22.00
2023-04-13T03:32:24.257Z,14.25
2023-04-13T03:35:00.287Z,13.80
2023-04-13T03:37:30.414Z,13.00
2023-04-13T03:40:05.189Z,20.75
2023-04-13T03:42:41.643Z,13.00
2023-04-13T03:45:11.153Z,10.00
2023-04-13T03:47:40.121Z,13.80
2023-04-13T03:50:11.747Z,11.00
2023-04-13T03:52:40.640Z,10.50
2023-04-13T03:55:10.420Z,12.60
2023-04-13T03:57:40.593Z,13.60
2023-04-13T04:00:14.287Z,16.00
2023-04-13T04:02:47.464Z,18.00
2023-04-13T04:05:24.017Z,9.00
2023-04-13T04:08:00.193Z,14.00
2023-04-13T04:10:29.878Z,13.00
2023-04-13T04:12:59.525Z,10.00
2023-04-13T04:15:29.114Z,12.40
2023-04-13T04:18:02.674Z,11.00
2023-04-13T04:20:33.130Z,12.00
2023-04-13T04:23:05.102Z,20.20
2023-04-13T04:25:42.025Z,13.00
2023-04-13T04:28:10.102Z,10.00
2023-04-13T04:30:38.224Z,14.40
2023-04-13T04:33:07.461Z,14.60
2023-04-13T04:35:43.301Z,10.00
2023-04-13T04:38:11.624Z,14.00
2023-04-13T04:40:45.205Z,14.00
2023-04-13T04:43:16.507Z,11.60
2023-04-13T04:45:52.363Z,10.00
2023-04-13T04:48:24.960Z,8.00
2023-04-13T04:50:56.118Z,10.00
2023-04-13T04:53:27.245Z,9.40
2023-04-13T04:55:56.247Z,9.00
2023-04-13T04:58:38.910Z,15.40
2023-04-13T05:01:08.346Z,13.00
2023-04-13T05:03:37.230Z,13.50
2023-04-13T05:06:20.206Z,10.00
2023-04-13T05:08:48.262Z,13.00
2023-04-13T05:11:17.119Z,11.00
2023-04-13T05:13:45.412Z,11.25
2023-04-13T05:16:20.504Z,12.50
2023-04-13T05:18:49.048Z,10.00
2023-04-13T05:21:30.209Z,9.75
2023-04-13T05:24:01.027Z,9.00
2023-04-13T05:26:30.662Z,12.60
2023-04-13T05:28:59.457Z,15.20
2023-04-13T05:31:32.335Z,16.00
2023-04-13T05:34:01.688Z,19.40
2023-04-13T05:36:32.217Z,15.40
2023-04-13T05:39:05.845Z,15.00
2023-04-13T05:41:35.171Z,11.40
2023-04-13T05:44:03.844Z,11.00
2023-04-13T05:46:33.696Z,13.20
2023-04-13T05:49:05.786Z,10.60
2023-04-13T05:51:35.549Z,15.60
2023-04-13T05:54:03.831Z,13.75
2023-04-13T05:56:34.359Z,13.40
2023-04-13T05:59:03.542Z,17.40
2023-04-13T06:01:31.763Z,12.00
2023-04-13T06:04:00.780Z,12.00
2023-04-13T06:06:30.366Z,13.00
2023-04-13T06:09:00.052Z,17.00
2023-04-13T06:11:28.440Z,11.60
2023-04-13T06:13:58.708Z,18.00
2023-04-13T06:16:28.165Z,17.40
2023-04-13T06:18:56.286Z,14.00
2023-04-13T06:21:28.679Z,13.60
2023-04-13T06:23:57.059Z,14.00
2023-04-13T06:26:34.545Z,12.00
2023-04-13T06:29:03.633Z,12.00
2023-04-13T06:31:39.562Z,15.40
2023-04-13T06:34:13.802Z,19.40
2023-04-13T06:36:42.538Z,12.40
2023-04-13T06:39:13.761Z,14.40
2023-04-13T06:41:47.893Z,15.20
2023-04-13T06:44:22.554Z,10.00
2023-04-13T06:46:54.672Z,12.40
2023-04-13T06:49:24.450Z,22.00
2023-04-13T06:51:52.784Z,20.00
2023-04-13T06:54:21.010Z,35.00
2023-04-13T06:56:57.880Z,21.33
2023-04-13T06:59:26.014Z,19.00
2023-04-13T07:01:54.197Z,66.00
2023-04-13T07:04:22.757Z,59.50
2023-04-13T07:06:52.194Z,16.60
2023-04-13T07:09:20.548Z,25.40
2023-04-13T07:11:49.010Z,20.75
2023-04-13T07:14:18.931Z,31.40
2023-04-13T07:16:47.010Z,29.50
2023-04-13T07:19:16.553Z,23.60
2023-04-13T07:21:44.618Z,14.00
2023-04-13T07:24:12.640Z,15.50
2023-04-13T07:26:43.780Z,17.20
2023-04-13T07:29:13.734Z,17.40
2023-04-13T07:31:47.941Z,13.20
2023-04-13T07:34:16.374Z,12.00
2023-04-13T07:36:47.088Z,15.00
2023-04-13T07:39:19.052Z,15.00
2023-04-13T07:41:49.752Z,17.50
2023-04-13T07:44:23.997Z,14.00
2023-04-13T07:46:55.550Z,14.25
2023-04-13T07:49:25.122Z,13.00
2023-04-13T07:51:55.061Z,12.25
2023-04-13T07:54:24.008Z,10.20
2023-04-13T07:56:53.532Z,7.75
2023-04-13T07:59:25.780Z,11.40
2023-04-13T08:01:56.222Z,8.40
2023-04-13T08:04:24.972Z,8.00
2023-04-13T08:06:53.884Z,7.20
2023-04-13T08:09:22.325Z,12.50
2023-04-13T08:11:51.007Z,19.00
2023-04-13T08:14:19.188Z,13.00
2023-04-13T08:16:49.947Z,10.40
2023-04-13T08:19:19.620Z,14.60
2023-04-13T08:21:52.510Z,9.00
2023-04-13T08:24:21.518Z,11.00
2023-04-13T08:26:49.652Z,5.00
2023-04-13T08:29:19.125Z,4.00
2023-04-13T08:31:48.166Z,8.00
2023-04-13T08:34:17.047Z,9.00
2023-04-13T08:36:48.131Z,9.50
2023-04-13T08:39:16.629Z,6.60
2023-04-13T08:41:46.317Z,8.00
2023-04-13T08:44:17.664Z,4.00
2023-04-13T08:46:49.667Z,10.00
2023-04-13T08:49:22.493Z,7.50
2023-04-13T08:52:16.987Z,7.00
2023-04-13T08:54:49.017Z,4.00
2023-04-13T08:57:22.810Z,6.50
2023-04-13T08:59:51.760Z,11.00
2023-04-13T09:02:23.918Z,6.00
2023-04-13T09:04:55.557Z,6.00
2023-04-13T09:07:27.756Z,3.20
2023-04-13T09:10:00.228Z,5.00
2023-04-13T09:12:28.430Z,4.00
2023-04-13T09:14:56.600Z,5.00
2023-04-13T09:17:27.562Z,4.60
2023-04-13T09:19:57.506Z,4.00
2023-04-13T09:22:29.918Z,3.50
2023-04-13T09:24:58.111Z,3.75
2023-04-13T09:27:26.569Z,5.00
2023-04-13T09:29:55.152Z,2.00
2023-04-13T09:32:23.668Z,6.00
2023-04-13T09:35:01.571Z,6.80
2023-04-13T09:37:32.589Z,5.00
2023-04-13T09:40:10.827Z,2.50
2023-04-13T09:42:39.605Z,4.60
2023-04-13T09:45:08.527Z,3.00
2023-04-13T09:47:38.017Z,4.40
2023-04-13T09:50:07.130Z,3.00
2023-04-13T09:52:36.531Z,3.75
2023-04-13T09:55:04.700Z,5.00
2023-04-13T09:57:33.192Z,4.20
2023-04-13T10:00:02.247Z,2.25
2023-04-13T10:02:40.046Z,4.20
2023-04-13T10:05:09.967Z,4.60
2023-04-13T10:07:40.208Z,4.00
2023-04-13T10:10:09.584Z,3.25
2023-04-13T10:12:38.056Z,6.00
2023-04-13T10:15:11.114Z,5.00
2023-04-13T10:17:49.392Z,3.00
2023-04-13T10:20:17.876Z,4.00
2023-04-13T10:22:47.576Z,3.00
2023-04-13T10:25:31.578Z,5.00
2023-04-13T10:28:02.128Z,2.00
2023-04-13T10:30:30.223Z,2.00
2023-04-13T10:33:09.953Z,3.00
2023-04-13T10:35:39.420Z,3.00
2023-04-13T10:38:11.612Z,3.00
2023-04-13T10:40:45.866Z,2.00
2023-04-13T10:43:14.127Z,2.00
2023-04-13T10:45:42.159Z,2.80
2023-04-13T10:48:21.243Z,3.00
2023-04-13T10:50:58.893Z,5.00
2023-04-13T10:53:30.674Z,2.80
2023-04-13T10:55:58.742Z,2.00
2023-04-13T10:58:27.972Z,2.00
2023-04-13T11:00:56.517Z,3.00
2023-04-13T11:03:27.564Z,2.25
2023-04-13T11:05:57.751Z,3.00
2023-04-13T11:08:28.094Z,1.60
2023-04-13T11:10:58.277Z,2.00
2023-04-13T11:13:27.008Z,1.20
2023-04-13T11:16:02.774Z,4.00
2023-04-13T11:18:30.924Z,1.60
2023-04-13T11:20:58.958Z,2.00
2023-04-13T11:23:27.090Z,1.00
2023-04-13T11:25:56.226Z,3.00
2023-04-13T11:28:26.414Z,2.75
2023-04-13T11:30:56.098Z,2.00
2023-04-13T11:33:27.663Z,1.00
2023-04-13T11:35:56.353Z,5.25
2023-04-13T11:38:24.430Z,1.00
2023-04-13T11:40:58.978Z,1.00
2023-04-13T11:43:37.787Z,2.00
2023-04-13T11:46:06.119Z,2.80
2023-04-13T11:48:34.244Z,2.00
2023-04-13T11:51:02.316Z,2.00
2023-04-13T11:53:32.215Z,1.60
2023-04-13T11:56:00.319Z,1.80
2023-04-13T11:58:28.312Z,2.00
2023-04-13T12:01:03.310Z,1.00
2023-04-13T12:03:46.915Z,5.00
2023-04-13T12:06:24.534Z,3.80
2023-04-13T12:19:09.876Z,3.60
2023-04-13T12:21:40.026Z,2.80
2023-04-13T12:24:08.563Z,5.00
2023-04-13T12:29:11.522Z,4.00
2023-04-13T12:31:40.931Z,3.00
2023-04-13T12:34:10.316Z,2.80
2023-04-13T12:36:38.364Z,3.00
2023-04-13T12:39:06.877Z,2.00
2023-04-13T12:41:34.989Z,9.25
2023-04-13T12:44:03.006Z,1.00
2023-04-13T12:46:32.345Z,2.00
2023-04-13T12:49:02.039Z,1.00
2023-04-13T12:51:31.550Z,7.00
2023-04-13T12:53:59.584Z,6.20
2023-04-13T12:56:27.807Z,2.00
2023-04-13T12:58:56.297Z,3.00
2023-04-13T13:01:24.415Z,2.80
2023-04-13T13:03:52.593Z,1.00
2023-04-13T13:06:22.019Z,1.40
2023-04-13T13:08:51.256Z,4.00
2023-04-13T13:11:19.293Z,4.00
2023-04-13T13:13:47.294Z,1.00
2023-04-13T13:16:15.361Z,3.00
2023-04-13T13:18:50.476Z,3.00
2023-04-13T13:21:21.267Z,3.00
2023-04-13T13:23:49.294Z,0.50
2023-04-13T13:28:48.285Z,3.75
2023-04-13T13:31:16.533Z,8.00
2023-04-13T13:33:44.798Z,5.00
2023-04-13T13:36:14.054Z,3.40
2023-04-13T13:38:44.062Z,2.00
2023-04-13T13:41:12.110Z,3.00
2023-04-13T13:43:40.190Z,2.00
2023-04-13T13:46:08.407Z,18.25
2023-04-13T13:48:38.919Z,25.00
2023-04-13T13:51:27.670Z,15.20
2023-04-13T13:53:58.507Z,11.00
2023-04-13T13:56:26.730Z,1.00
2023-04-13T13:58:54.782Z,1.00
2023-04-13T14:01:22.882Z,27.00
2023-04-13T14:03:51.004Z,22.00
2023-04-13T14:06:19.074Z,20.00
2023-04-13T14:08:47.158Z,8.00
2023-04-13T14:11:16.593Z,2.00
2023-04-13T14:13:44.612Z,2.00
2023-04-13T14:16:12.907Z,1.00
2023-04-13T14:18:41.048Z,5.00
2023-04-13T14:21:09.273Z,7.00
2023-04-13T14:23:38.290Z,4.00
2023-04-13T14:26:06.593Z,9.00
2023-04-13T14:28:38.402Z,5.00
2023-04-13T14:31:06.804Z,6.40
2023-04-13T14:33:35.269Z,7.33
2023-04-13T14:36:03.327Z,7.00
2023-04-13T14:38:31.366Z,4.00
2023-04-13T14:40:59.419Z,2.00
2023-04-13T14:43:27.459Z,8.00
2023-04-13T14:45:58.035Z,1.40
2023-04-13T14:48:26.425Z,2.40
2023-04-13T14:50:54.613Z,5.00
2023-04-13T14:53:22.919Z,4.50
2023-04-13T14:55:51.237Z,4.00
2023-04-13T14:58:19.491Z,3.00
2023-04-13T15:00:47.728Z,2.20
2023-04-13T15:03:17.702Z,5.75
2023-04-13T15:05:47.481Z,1.00
2023-04-13T15:08:16.911Z,4.00
2023-04-13T15:10:45.891Z,2.00
2023-04-13T15:13:14.119Z,1.40
2023-04-13T15:15:42.681Z,2.00
2023-04-13T15:18:10.935Z,1.80
2023-04-13T15:20:40.764Z,1.00
2023-04-13T15:23:08.984Z,1.80
2023-04-13T15:25:38.160Z,1.00
2023-04-13T15:28:06.565Z,2.00
2023-04-13T15:30:35.051Z,2.00
2023-04-13T15:33:03.617Z,2.75
2023-04-13T15:35:31.917Z,3.50
2023-04-13T15:38:02.040Z,24.50
2023-04-13T15:40:32.764Z,30.80
2023-04-13T15:43:00.806Z,4.00
2023-04-13T15:45:28.873Z,4.75
2023-04-13T15:47:56.945Z,3.80
2023-04-13T15:50:25.219Z,4.00
2023-04-13T15:52:53.260Z,5.60
2023-04-13T15:55:22.884Z,2.00
2023-04-13T15:57:53.727Z,9.00
2023-04-13T16:00:22.250Z,2.40
2023-04-13T16:02:50.438Z,2.00
2023-04-13T16:05:19.736Z,3.00
2023-04-13T16:07:47.996Z,3.00
2023-04-13T16:10:16.530Z,2.00
2023-04-13T16:12:45.985Z,3.50
2023-04-13T16:15:14.055Z,3.60
2023-04-13T16:17:44.011Z,3.00
2023-04-13T16:20:19.860Z,3.60
2023-04-13T16:22:49.185Z,5.25
2023-04-13T16:25:18.941Z,12.00
2023-04-13T16:27:48.882Z,8.00
2023-04-13T16:30:17.872Z,6.25
2023-04-13T16:32:46.484Z,9.00
2023-04-13T16:35:14.683Z,5.00
2023-04-13T16:37:43.310Z,5.60
2023-04-13T16:40:11.747Z,3.00
2023-04-13T16:42:40.444Z,4.60
2023-04-13T16:45:13.804Z,7.00
2023-04-13T16:47:42.838Z,5.50
2023-04-13T16:50:11.530Z,2.40
2023-04-13T16:52:40.022Z,4.00
2023-04-13T16:55:08.716Z,2.80
2023-04-13T16:57:36.770Z,3.00
2023-04-13T17:00:06.838Z,3.50
2023-04-13T17:02:36.888Z,1.00
2023-04-13T17:05:08.295Z,1.20
2023-04-13T17:07:36.854Z,5.00
2023-04-13T17:10:05.326Z,2.00
2023-04-13T17:12:33.366Z,20.50
2023-04-13T17:15:01.993Z,4.00
2023-04-13T17:17:30.065Z,5.00
2023-04-13T17:19:59.524Z,5.00
2023-04-13T17:22:27.977Z,5.00
2023-04-13T17:24:56.307Z,10.50
2023-04-13T17:27:24.365Z,6.50
2023-04-13T17:29:52.387Z,10.40
2023-04-13T17:32:22.066Z,6.20
2023-04-13T17:34:50.426Z,8.60
2023-04-13T17:37:19.814Z,8.50
2023-04-13T17:39:50.796Z,3.00
2023-04-13T17:42:18.920Z,7.00
2023-04-13T17:44:47.276Z,4.67
2023-04-13T17:47:15.420Z,3.00
2023-04-13T17:49:43.605Z,3.00
2023-04-13T17:52:11.667Z,2.50
2023-04-13T17:54:41.084Z,2.00
2023-04-13T17:57:09.163Z,3.00
2023-04-13T17:59:37.211Z,3.25
2023-04-13T18:02:05.425Z,2.75
2023-04-13T18:04:33.720Z,3.80
2023-04-13T18:07:01.895Z,3.00
2023-04-13T18:09:29.957Z,2.00
2023-04-13T18:11:59.390Z,3.00
2023-04-13T18:14:27.597Z,3.00
2023-04-13T18:16:55.736Z,4.00
2023-04-13T18:19:23.811Z,4.00
2023-04-13T18:21:51.916Z,5.50
2023-04-13T18:24:20.207Z,5.00
2023-04-13T18:26:48.254Z,2.00
2023-04-13T18:29:17.702Z,6.00
2023-04-13T18:31:45.893Z,5.00
2023-04-13T18:34:14.850Z,5.00
2023-04-13T18:36:42.965Z,4.00
2023-04-13T18:39:11.048Z,3.00
2023-04-13T18:41:41.732Z,5.00
2023-04-13T18:44:10.501Z,10.20
2023-04-13T18:46:39.904Z,10.00
2023-04-13T18:49:08.010Z,9.50
2023-04-13T18:51:36.073Z,12.00
2023-04-13T18:54:04.864Z,7.00
2023-04-13T18:56:32.892Z,7.00
2023-04-13T18:59:00.933Z,6.60
2023-04-13T19:01:29.010Z,8.00
2023-04-13T19:03:58.843Z,5.00
2023-04-13T19:06:27.803Z,6.40
2023-04-13T19:08:55.846Z,6.60
2023-04-13T19:11:24.617Z,8.00
2023-04-13T19:13:52.667Z,5.40
2023-04-13T19:16:21.697Z,10.40
2023-04-13T19:18:49.874Z,5.00
2023-04-13T19:21:23.691Z,6.00
2023-04-13T19:23:51.780Z,6.40
2023-04-13T19:26:19.852Z,5.00
2023-04-13T19:28:48.372Z,7.00
2023-04-13T19:31:16.950Z,6.40
2023-04-13T19:33:46.529Z,9.20
2023-04-13T19:36:14.584Z,5.00
2023-04-13T19:38:45.222Z,6.00
2023-04-13T19:41:13.650Z,7.00
2023-04-13T19:43:41.744Z,7.00
2023-04-13T19:46:09.851Z,4.25
2023-04-13T19:48:38.684Z,5.75
2023-04-13T19:51:06.813Z,6.33
2023-04-13T19:53:36.811Z,9.75
2023-04-13T19:56:07.405Z,4.80
2023-04-13T19:58:35.449Z,6.00
2023-04-13T20:01:06.274Z,5.00
2023-04-13T20:03:34.553Z,5.00
2023-04-13T20:06:02.840Z,5.00
2023-04-13T20:08:30.969Z,6.00
2023-04-13T20:10:59.949Z,11.00
2023-04-13T20:13:29.461Z,11.00
2023-04-13T20:15:57.541Z,16.20
2023-04-13T20:18:25.654Z,15.00
2023-04-13T20:20:53.666Z,35.60
2023-04-13T20:23:21.711Z,43.50
2023-04-13T20:25:49.726Z,28.80
2023-04-13T20:28:17.942Z,38.50
2023-04-13T20:30:47.560Z,36.25
2023-04-13T20:33:15.631Z,35.75
2023-04-13T20:35:43.634Z,41.50
2023-04-13T20:38:13.989Z,29.60
2023-04-13T20:40:45.677Z,25.80
2023-04-13T20:43:15.599Z,28.00
2023-04-13T20:45:45.358Z,20.00
2023-04-13T20:50:47.883Z,14.80
2023-04-13T20:53:17.709Z,19.60
2023-04-13T20:55:45.854Z,20.80
2023-04-13T20:58:13.962Z,15.60
2023-04-13T21:00:43.614Z,9.00
2023-04-13T21:03:11.918Z,10.60
2023-04-13T21:05:41.698Z,10.00
2023-04-13T21:08:09.755Z,9.75
2023-04-13T21:10:37.794Z,9.00
2023-04-13T21:13:06.366Z,12.75
2023-04-13T21:15:34.385Z,7.20
2023-04-13T21:18:02.496Z,11.00
2023-04-13T21:20:30.628Z,10.00
2023-04-13T21:22:59.999Z,9.40
2023-04-13T21:25:28.067Z,12.00
2023-04-13T21:27:56.143Z,11.00
2023-04-13T21:30:24.177Z,12.50
2023-04-13T21:32:52.251Z,11.60
2023-04-13T21:35:20.450Z,10.00
2023-04-13T21:37:48.526Z,8.00
2023-04-13T21:40:18.456Z,7.00
2023-04-13T21:42:46.481Z,9.50
2023-04-13T21:45:14.513Z,7.60
2023-04-13T21:47:42.611Z,6.00
2023-04-13T21:50:11.370Z,9.40
2023-04-13T21:52:39.402Z,4.00
2023-04-13T21:55:07.948Z,5.20
2023-04-13T21:57:40.143Z,7.00
2023-04-13T22:00:09.691Z,4.60
2023-04-13T22:02:40.351Z,4.00
2023-04-13T22:05:09.453Z,5.00
2023-04-13T22:07:43.032Z,4.40
2023-04-13T22:10:11.998Z,3.00
2023-04-13T22:12:41.390Z,5.00
2023-04-13T22:15:10.036Z,5.00
2023-04-13T22:17:38.177Z,3.40
2023-04-13T22:20:07.150Z,5.00
2023-04-13T22:22:35.325Z,7.50
2023-04-13T22:25:03.415Z,2.50
2023-04-13T22:27:31.456Z,4.60
2023-04-13T22:30:00.861Z,5.00
2023-04-13T22:32:29.120Z,4.00
2023-04-13T22:34:58.222Z,4.00
2023-04-13T22:37:26.244Z,3.00
2023-04-13T22:39:54.292Z,5.00
2023-04-13T22:42:22.339Z,4.00
2023-04-13T22:44:50.384Z,2.60
2023-04-13T22:47:19.762Z,3.00
2023-04-13T22:49:47.814Z,2.60
2023-04-13T22:52:18.835Z,3.00
2023-04-13T22:54:47.046Z,4.20
2023-04-13T22:57:15.056Z,3.20
2023-04-13T22:59:43.284Z,5.60
2023-04-13T23:02:11.455Z,2.00
2023-04-13T23:04:41.086Z,3.80
2023-04-13T23:07:09.152Z,5.00
2023-04-13T23:09:37.220Z,11.60
2023-04-13T23:12:05.581Z,11.00
2023-04-13T23:14:33.646Z,7.40
2023-04-13T23:17:01.687Z,9.00
2023-04-13T23:19:29.725Z,9.00
2023-04-13T23:21:59.119Z,5.60
2023-04-13T23:24:28.529Z,3.50
2023-04-13T23:26:57.974Z,3.00
2023-04-13T23:29:26.213Z,3.00
2023-04-13T23:31:56.311Z,7.00
2023-04-13T23:34:24.456Z,3.00
2023-04-13T23:36:52.466Z,3.00
2023-04-13T23:39:23.125Z,4.00
2023-04-13T23:41:51.120Z,3.40
2023-04-13T23:44:19.158Z,6.00
2023-04-13T23:46:47.174Z,4.00
2023-04-13T23:49:15.228Z,2.40
2023-04-13T23:51:43.633Z,8.50
2023-04-13T23:54:12.068Z,6.00
2023-04-13T23:56:41.534Z,7.50
2023-04-13T23:59:09.559Z,5.80
